Time;durP1;ratioP1;P1;durP2;ratioP2;P2;SDS_P1;SDS_P2;PMS_P1;PMS_P2;Temp;Humidity;BMP_temperature;BMP_pressure;BME280_temperature;BME280_humidity;BME280_pressure;Samples;Min_cycle;Max_cycle;Signal;HPM_P1;HPM_P2
2021/06/05 00:02:23;;;;;;;181.88;96.28;;;19.50;99.90;;;;;;5032839;28;20179;-80
2021/06/05 00:04:52;;;;;;;186.32;97.72;;;19.50;99.90;;;;;;5052770;28;20648;-78
2021/06/05 00:07:18;;;;;;;165.80;91.35;;;19.50;99.90;;;;;;5031832;28;20648;-79
2021/06/05 00:09:44;;;;;;;150.82;85.13;;;19.50;99.90;;;;;;5032350;28;20214;-79
2021/06/05 00:12:13;;;;;;;148.98;84.30;;;19.40;99.90;;;;;;5033567;28;20255;-78
2021/06/05 00:14:38;;;;;;;150.40;83.82;;;19.20;99.90;;;;;;5049082;28;20191;-79
2021/06/05 00:17:04;;;;;;;142.50;82.15;;;19.30;99.90;;;;;;5064131;28;20203;-79
2021/06/05 00:19:30;;;;;;;147.32;82.47;;;19.30;99.90;;;;;;5030876;28;20168;-79
2021/06/05 00:21:55;;;;;;;145.02;78.13;;;19.40;99.90;;;;;;5033509;28;20206;-79
2021/06/05 00:24:21;;;;;;;130.35;74.15;;;19.30;99.90;;;;;;5064542;28;20178;-79
2021/06/05 00:26:47;;;;;;;142.63;75.25;;;19.30;99.90;;;;;;5064522;28;20263;-79
2021/06/05 00:29:13;;;;;;;141.25;78.45;;;19.40;99.90;;;;;;5032834;28;20176;-78
2021/06/05 00:31:39;;;;;;;134.15;76.25;;;19.40;99.90;;;;;;5044145;28;20186;-79
2021/06/05 00:34:05;;;;;;;128.52;73.18;;;19.50;99.90;;;;;;5017270;28;20176;-79
2021/06/05 00:36:31;;;;;;;135.73;75.82;;;19.50;99.90;;;;;;5031207;28;20183;-79
2021/06/05 00:38:57;;;;;;;153.18;81.43;;;19.50;99.90;;;;;;5032481;28;20183;-79
2021/06/05 00:41:25;;;;;;;132.55;77.18;;;19.60;99.90;;;;;;5035962;28;20195;-79
2021/06/05 00:43:56;;;;;;;149.27;80.43;;;19.60;99.90;;;;;;5033179;28;20172;-78
2021/06/05 00:46:23;;;;;;;147.98;79.20;;;19.50;99.90;;;;;;5028195;28;20169;-79
2021/06/05 00:48:50;;;;;;;140.85;76.10;;;19.60;99.90;;;;;;5032364;28;20192;-79
2021/06/05 00:51:17;;;;;;;153.38;81.35;;;19.50;99.90;;;;;;5040424;28;20171;-79
2021/06/05 00:53:44;;;;;;;155.90;82.13;;;19.50;99.90;;;;;;5044771;28;20617;-79
2021/06/05 00:56:13;;;;;;;148.18;79.18;;;19.60;99.90;;;;;;5033199;28;20164;-79
2021/06/05 00:58:39;;;;;;;159.88;80.35;;;19.70;99.90;;;;;;5031799;28;20227;-78
2021/06/05 01:01:12;;;;;;;161.35;81.18;;;19.70;99.90;;;;;;5067477;28;20175;-78
2021/06/05 01:03:38;;;;;;;156.55;79.25;;;19.70;99.90;;;;;;5052839;28;20167;-79
2021/06/05 01:06:18;;;;;;;148.55;78.20;;;19.70;99.90;;;;;;5016840;28;20597;-79
2021/06/05 01:09:05;;;;;;;167.57;78.57;;;19.70;99.90;;;;;;5029487;28;20222;-79
2021/06/05 01:11:49;;;;;;;190.25;82.45;;;19.60;99.90;;;;;;5036032;28;20647;-80
2021/06/05 01:14:48;;;;;;;205.95;83.63;;;19.30;99.90;;;;;;5064950;28;20172;-79
2021/06/05 01:17:21;;;;;;;210.75;90.00;;;19.20;99.90;;;;;;5032505;28;20179;-79
2021/06/05 01:19:50;;;;;;;211.43;87.65;;;18.90;99.90;;;;;;5035946;28;20180;-79
2021/06/05 01:22:21;;;;;;;236.70;91.95;;;18.70;99.90;;;;;;5049047;28;20193;-78
2021/06/05 01:25:05;;;;;;;210.60;89.30;;;18.50;99.90;;;;;;5054667;28;20517;-79
2021/06/05 01:27:36;;;;;;;225.05;89.40;;;18.40;99.90;;;;;;5034670;28;20199;-78
2021/06/05 01:30:28;;;;;;;207.07;87.28;;;18.40;99.90;;;;;;5037437;28;20688;-79
2021/06/05 01:32:56;;;;;;;247.93;93.05;;;18.30;99.90;;;;;;5019002;28;20187;-79
2021/06/05 01:35:25;;;;;;;223.50;90.03;;;18.20;99.90;;;;;;5036332;28;20161;-79
2021/06/05 01:37:52;;;;;;;243.35;93.22;;;18.20;99.90;;;;;;5034740;28;20176;-79
2021/06/05 01:40:18;;;;;;;240.23;93.22;;;18.20;99.90;;;;;;5035856;28;20179;-79
2021/06/05 01:42:45;;;;;;;252.85;95.90;;;18.20;99.90;;;;;;5043281;28;20686;-79
2021/06/05 01:45:18;;;;;;;292.55;99.53;;;18.10;99.90;;;;;;5035919;28;20238;-79
2021/06/05 01:47:44;;;;;;;278.08;101.38;;;18.00;99.90;;;;;;5035157;28;20200;-79
2021/06/05 01:50:12;;;;;;;273.52;103.35;;;18.00;99.90;;;;;;5036054;28;20171;-79
2021/06/05 01:52:39;;;;;;;267.33;104.32;;;17.80;99.90;;;;;;5035122;28;20273;-79
2021/06/05 01:55:16;;;;;;;272.08;106.15;;;17.80;99.90;;;;;;5033897;28;20176;-79
2021/06/05 01:57:46;;;;;;;272.05;105.65;;;17.70;99.90;;;;;;5035203;28;20186;-79
2021/06/05 02:00:23;;;;;;;272.02;105.40;;;17.70;99.90;;;;;;5034158;28;20222;-79
2021/06/05 02:02:50;;;;;;;273.23;104.57;;;17.70;99.90;;;;;;5033576;28;20167;-79
2021/06/05 02:05:17;;;;;;;270.67;105.82;;;17.60;99.90;;;;;;5064622;28;20287;-79
2021/06/05 02:07:44;;;;;;;269.40;106.50;;;17.50;99.90;;;;;;5032875;28;20192;-79
2021/06/05 02:10:11;;;;;;;264.25;106.57;;;17.50;99.90;;;;;;5034428;28;20168;-80
2021/06/05 02:12:38;;;;;;;277.75;104.97;;;17.60;99.90;;;;;;5053105;28;20170;-79
2021/06/05 02:15:17;;;;;;;275.63;104.45;;;17.60;99.90;;;;;;5046537;28;20229;-79
2021/06/05 02:17:44;;;;;;;237.60;96.60;;;17.70;99.90;;;;;;5034783;28;20174;-79
2021/06/05 02:20:33;;;;;;;226.68;92.68;;;17.70;99.90;;;;;;5082936;28;20179;-80
2021/06/05 02:23:03;;;;;;;212.85;90.72;;;17.60;99.90;;;;;;5031689;28;20168;-79
2021/06/05 02:25:30;;;;;;;213.57;89.40;;;17.50;99.90;;;;;;5035640;28;20160;-79
2021/06/05 02:28:03;;;;;;;185.40;84.85;;;17.50;99.90;;;;;;5033280;28;20534;-79
2021/06/05 02:30:30;;;;;;;202.45;85.95;;;17.50;99.90;;;;;;5043131;28;20242;-80
2021/06/05 02:32:56;;;;;;;218.07;90.78;;;17.50;99.90;;;;;;5034381;28;20259;-79
2021/06/05 02:35:32;;;;;;;243.65;97.70;;;17.50;99.90;;;;;;5033766;28;20642;-80
2021/06/05 02:37:58;;;;;;;198.00;89.65;;;17.50;99.90;;;;;;5033382;28;20202;-80
2021/06/05 02:40:31;;;;;;;188.68;90.70;;;17.40;99.90;;;;;;5033602;28;20176;-79
2021/06/05 02:43:00;;;;;;;201.32;91.43;;;17.20;99.90;;;;;;5041233;28;20199;-78
2021/06/05 02:45:33;;;;;;;201.80;90.82;;;17.20;99.90;;;;;;5034969;28;20219;-79
2021/06/05 02:48:01;;;;;;;221.27;95.03;;;17.30;99.90;;;;;;5031711;28;20192;-80
2021/06/05 02:50:43;;;;;;;190.75;90.10;;;17.40;99.90;;;;;;5066796;28;20231;-79
2021/06/05 02:53:09;;;;;;;204.85;94.55;;;17.30;99.90;;;;;;5018930;28;20222;-78
2021/06/05 02:55:35;;;;;;;201.50;92.05;;;17.30;99.90;;;;;;5033973;28;20568;-79
2021/06/05 02:58:02;;;;;;;200.15;91.28;;;17.40;99.90;;;;;;5032096;28;20609;-79
2021/06/05 03:00:32;;;;;;;197.77;91.47;;;17.50;99.90;;;;;;5065731;28;20255;-79
2021/06/05 03:02:58;;;;;;;186.18;84.80;;;17.50;99.90;;;;;;5046288;28;20175;-79
2021/06/05 03:05:24;;;;;;;167.82;79.47;;;17.50;99.90;;;;;;5033917;28;20615;-80
2021/06/05 03:07:51;;;;;;;165.55;78.57;;;17.50;99.90;;;;;;5032311;28;20670;-79
2021/06/05 03:10:17;;;;;;;141.13;70.05;;;17.50;99.90;;;;;;5033953;28;20183;-79
2021/06/05 03:12:43;;;;;;;128.80;65.72;;;17.50;99.90;;;;;;5052610;28;20229;-79
2021/06/05 03:15:09;;;;;;;134.77;66.90;;;17.40;99.90;;;;;;5034195;28;20516;-79
2021/06/05 03:17:36;;;;;;;133.88;67.63;;;17.40;99.90;;;;;;5033627;28;20269;-80
2021/06/05 03:20:07;;;;;;;138.45;70.05;;;17.40;99.90;;;;;;5065517;28;20187;-79
2021/06/05 03:22:32;;;;;;;139.57;68.15;;;17.40;99.90;;;;;;5048799;28;20210;-79
2021/06/05 03:24:58;;;;;;;127.38;67.30;;;17.50;99.90;;;;;;5049908;28;20270;-79
2021/06/05 03:27:24;;;;;;;120.18;63.78;;;17.40;99.90;;;;;;5034107;28;20196;-79
2021/06/05 03:29:49;;;;;;;111.68;59.92;;;17.40;99.90;;;;;;5065288;28;20179;-79
2021/06/05 03:32:15;;;;;;;121.78;62.60;;;17.30;99.90;;;;;;5046769;28;20167;-79
2021/06/05 03:34:41;;;;;;;122.78;64.82;;;17.30;99.90;;;;;;5035030;28;20203;-79
2021/06/05 03:37:09;;;;;;;122.90;63.00;;;17.20;99.90;;;;;;5049176;28;20214;-79
2021/06/05 03:39:35;;;;;;;118.95;63.92;;;17.20;99.90;;;;;;5032214;28;20581;-79
2021/06/05 03:42:01;;;;;;;131.10;66.25;;;17.20;99.90;;;;;;5046024;28;20225;-80
2021/06/05 03:44:27;;;;;;;123.95;63.40;;;17.10;99.90;;;;;;5033460;28;20175;-79
2021/06/05 03:46:52;;;;;;;144.18;70.70;;;17.10;99.90;;;;;;5033910;28;20239;-79
2021/06/05 03:49:18;;;;;;;144.48;69.20;;;17.00;99.90;;;;;;5031192;28;20215;-80
2021/06/05 03:51:44;;;;;;;152.65;73.47;;;17.00;99.90;;;;;;5042961;28;20166;-79
2021/06/05 03:54:09;;;;;;;157.60;74.28;;;17.00;99.90;;;;;;5043159;28;20547;-79
2021/06/05 03:56:35;;;;;;;148.38;70.82;;;17.00;99.90;;;;;;5033469;28;20556;-79
2021/06/05 03:59:02;;;;;;;165.70;74.00;;;16.90;99.90;;;;;;5048089;28;20207;-80
2021/06/05 04:01:29;;;;;;;162.02;73.75;;;17.00;99.90;;;;;;5039765;28;20542;-79
2021/06/05 04:03:55;;;;;;;153.57;72.38;;;17.00;99.90;;;;;;5053492;28;20159;-79
2021/06/05 04:06:24;;;;;;;153.38;71.85;;;17.10;99.90;;;;;;5043099;28;20230;-79
2021/06/05 04:08:52;;;;;;;162.80;69.72;;;17.20;99.90;;;;;;5031281;28;20299;-80
2021/06/05 04:11:18;;;;;;;158.32;72.50;;;17.30;99.90;;;;;;5037347;28;20167;-79
2021/06/05 04:13:47;;;;;;;150.07;67.95;;;17.30;99.90;;;;;;5035472;28;20192;-79
2021/06/05 04:16:14;;;;;;;138.25;68.43;;;17.20;99.90;;;;;;5032302;28;20225;-79
2021/06/05 04:18:41;;;;;;;132.43;65.88;;;17.30;99.90;;;;;;5062728;28;20556;-80
2021/06/05 04:21:10;;;;;;;120.53;59.63;;;17.30;99.90;;;;;;5052106;28;20563;-79
2021/06/05 04:23:36;;;;;;;111.57;56.28;;;17.10;99.90;;;;;;5046030;28;20172;-79
2021/06/05 04:26:05;;;;;;;111.50;56.83;;;17.00;99.90;;;;;;5031886;28;20171;-80
2021/06/05 04:28:32;;;;;;;93.35;54.38;;;16.90;99.90;;;;;;5031897;28;20195;-80
2021/06/05 04:30:57;;;;;;;100.75;51.47;;;16.90;99.90;;;;;;5035133;28;20176;-80
2021/06/05 04:33:26;;;;;;;89.78;48.47;;;16.90;99.90;;;;;;5045874;28;20172;-79
2021/06/05 04:35:53;;;;;;;93.03;50.95;;;16.80;99.90;;;;;;5033410;28;20196;-79
2021/06/05 04:38:20;;;;;;;87.15;49.47;;;16.90;99.90;;;;;;5030300;28;20172;-79
2021/06/05 04:40:46;;;;;;;89.55;50.50;;;17.00;99.90;;;;;;5033389;28;20797;-79
2021/06/05 04:43:14;;;;;;;86.88;48.20;;;17.10;99.90;;;;;;5032698;28;20186;-79
2021/06/05 04:45:41;;;;;;;82.70;50.17;;;17.10;99.90;;;;;;5033295;28;20179;-79
2021/06/05 04:48:07;;;;;;;82.30;48.85;;;17.20;99.90;;;;;;5032092;28;20211;-80
2021/06/05 04:50:35;;;;;;;87.75;49.65;;;17.20;99.90;;;;;;5031807;28;20375;-80
2021/06/05 04:53:02;;;;;;;80.22;46.83;;;17.30;99.90;;;;;;5051268;28;20167;-79
2021/06/05 04:55:28;;;;;;;85.75;48.35;;;17.30;99.90;;;;;;5037086;28;20211;-80
2021/06/05 04:57:55;;;;;;;78.25;47.85;;;17.10;99.90;;;;;;5036663;28;20160;-80
2021/06/05 05:00:26;;;;;;;77.25;47.47;;;17.20;99.90;;;;;;5034490;28;20179;-80
2021/06/05 05:02:52;;;;;;;82.95;46.83;;;17.20;99.90;;;;;;5055126;28;20518;-80
2021/06/05 05:05:18;;;;;;;73.43;45.70;;;17.30;99.90;;;;;;5036787;28;20211;-80
2021/06/05 05:07:46;;;;;;;77.45;45.83;;;17.30;99.90;;;;;;5036955;28;20195;-80
2021/06/05 05:10:12;;;;;;;65.03;43.17;;;17.30;99.90;;;;;;5033795;28;20182;-80
2021/06/05 05:12:38;;;;;;;69.38;42.42;;;17.30;99.90;;;;;;5048378;28;20176;-80
2021/06/05 05:15:05;;;;;;;66.82;41.22;;;17.30;99.90;;;;;;5036220;28;20183;-80
2021/06/05 05:17:33;;;;;;;69.25;40.67;;;17.40;99.90;;;;;;5051497;28;20183;-80
2021/06/05 05:20:00;;;;;;;58.13;40.95;;;17.30;99.90;;;;;;5034537;28;20226;-80
2021/06/05 05:22:26;;;;;;;76.32;43.90;;;17.40;99.90;;;;;;5037620;28;20226;-80
2021/06/05 05:24:51;;;;;;;65.55;41.53;;;17.40;99.90;;;;;;5041522;28;20187;-80
2021/06/05 05:27:17;;;;;;;65.88;42.95;;;17.50;99.90;;;;;;5036195;28;20176;-80
2021/06/05 05:29:43;;;;;;;69.78;43.60;;;17.50;99.90;;;;;;5033586;28;20192;-80
2021/06/05 05:32:08;;;;;;;65.55;43.97;;;17.50;99.90;;;;;;5068416;28;20175;-80
2021/06/05 05:34:34;;;;;;;69.68;43.40;;;17.40;99.90;;;;;;5036773;28;20266;-80
2021/06/05 05:36:59;;;;;;;69.63;42.10;;;17.40;99.90;;;;;;5068631;28;20172;-80
2021/06/05 05:39:25;;;;;;;63.65;41.65;;;17.40;99.90;;;;;;5034621;28;20191;-80
2021/06/05 05:41:53;;;;;;;57.70;40.00;;;17.50;99.90;;;;;;5035998;28;20263;-80
2021/06/05 05:44:19;;;;;;;61.50;37.08;;;17.50;99.90;;;;;;5043790;28;20171;-80
2021/06/05 05:46:46;;;;;;;62.55;39.28;;;17.50;99.90;;;;;;5054734;28;20228;-80
2021/06/05 05:49:11;;;;;;;68.75;39.95;;;17.40;99.90;;;;;;5036113;28;20227;-80
2021/06/05 05:51:37;;;;;;;56.92;40.80;;;17.40;99.90;;;;;;5036041;28;20199;-79
2021/06/05 05:54:03;;;;;;;57.85;39.10;;;17.30;99.90;;;;;;5041726;28;20184;-80
2021/06/05 05:56:31;;;;;;;66.85;39.97;;;17.30;99.90;;;;;;5056006;28;20171;-80
2021/06/05 05:58:58;;;;;;;60.22;38.10;;;17.20;99.90;;;;;;5043664;28;20635;-80
2021/06/05 06:01:25;;;;;;;73.82;40.70;;;17.30;99.90;;;;;;5035907;28;20163;-80
2021/06/05 06:03:54;;;;;;;67.57;41.78;;;17.30;99.90;;;;;;5039736;28;20178;-80
2021/06/05 06:06:21;;;;;;;67.72;40.13;;;17.20;99.90;;;;;;5054507;28;20160;-80
2021/06/05 06:08:47;;;;;;;57.47;40.33;;;17.20;99.90;;;;;;5046116;28;20222;-80
2021/06/05 06:11:13;;;;;;;59.75;39.35;;;17.20;99.90;;;;;;5033484;28;20164;-80
2021/06/05 06:13:40;;;;;;;72.10;43.38;;;17.20;99.90;;;;;;5036934;28;20652;-80
2021/06/05 06:16:07;;;;;;;91.45;47.50;;;17.20;99.90;;;;;;5055585;28;20159;-80
2021/06/05 06:18:34;;;;;;;89.30;48.28;;;17.20;99.90;;;;;;5043390;28;20564;-80
2021/06/05 06:21:00;;;;;;;97.97;50.00;;;17.20;99.90;;;;;;5035541;28;20156;-80
2021/06/05 06:23:28;;;;;;;99.35;51.88;;;17.20;99.90;;;;;;5050212;28;20267;-80
2021/06/05 06:25:57;;;;;;;100.45;55.67;;;17.20;99.90;;;;;;5031977;28;20172;-80
2021/06/05 06:28:30;;;;;;;108.63;55.92;;;17.20;99.90;;;;;;5034702;28;20192;-81
2021/06/05 06:30:56;;;;;;;113.13;58.42;;;17.10;99.90;;;;;;5034782;28;20215;-80
2021/06/05 06:33:23;;;;;;;122.10;58.35;;;17.10;99.90;;;;;;5034509;28;20186;-80
2021/06/05 06:35:50;;;;;;;125.95;60.40;;;17.00;99.90;;;;;;5053966;28;20179;-79
2021/06/05 06:38:22;;;;;;;122.88;60.72;;;17.10;99.90;;;;;;5048137;28;20176;-80
2021/06/05 06:40:49;;;;;;;123.75;60.90;;;17.20;99.90;;;;;;5066404;28;20184;-80
2021/06/05 06:43:20;;;;;;;137.50;62.67;;;17.20;99.90;;;;;;5033029;28;20183;-80
2021/06/05 06:45:46;;;;;;;118.80;62.08;;;17.30;99.90;;;;;;5066406;28;20195;-80
2021/06/05 06:48:12;;;;;;;131.18;64.53;;;17.30;99.90;;;;;;5034010;28;20191;-80
2021/06/05 06:50:38;;;;;;;131.27;62.97;;;17.40;99.90;;;;;;5035136;28;20183;-80
2021/06/05 06:53:04;;;;;;;127.20;65.25;;;17.40;99.90;;;;;;5033930;28;20160;-80
2021/06/05 06:55:30;;;;;;;141.38;66.63;;;17.30;99.90;;;;;;5066452;28;20225;-80
2021/06/05 06:57:56;;;;;;;129.15;63.72;;;17.30;99.90;;;;;;5052550;28;20200;-85
2021/06/05 07:00:31;;;;;;;143.23;67.75;;;17.30;99.90;;;;;;5032613;28;20188;-81
2021/06/05 07:02:57;;;;;;;141.57;65.47;;;17.20;99.90;;;;;;5049992;28;20166;-81
2021/06/05 07:05:22;;;;;;;140.52;67.88;;;17.10;99.90;;;;;;5033298;28;20670;-81
2021/06/05 07:07:48;;;;;;;145.55;69.00;;;17.00;99.90;;;;;;5064126;28;20200;-81
2021/06/05 07:10:16;;;;;;;139.75;66.30;;;16.90;99.90;;;;;;5047665;28;20257;-80
2021/06/05 07:12:41;;;;;;;146.15;71.13;;;16.90;99.90;;;;;;5040441;28;20632;-80
2021/06/05 07:15:08;;;;;;;143.90;72.18;;;16.90;99.90;;;;;;5031642;28;20218;-80
2021/06/05 07:17:33;;;;;;;145.57;73.65;;;16.80;99.90;;;;;;5034604;28;20639;-80
2021/06/05 07:19:59;;;;;;;147.75;73.28;;;16.90;99.90;;;;;;5033140;28;20258;-80
2021/06/05 07:22:25;;;;;;;146.65;70.78;;;16.80;99.90;;;;;;5046974;28;20159;-81
2021/06/05 07:24:50;;;;;;;144.27;71.45;;;16.90;99.90;;;;;;5004235;28;20177;-81
2021/06/05 07:27:16;;;;;;;130.23;69.85;;;16.90;99.90;;;;;;5014435;28;20176;-81
2021/06/05 07:29:42;;;;;;;127.90;68.78;;;16.90;99.90;;;;;;5029318;28;20569;-80
2021/06/05 07:32:08;;;;;;;134.80;68.95;;;16.80;99.90;;;;;;5034249;28;20195;-80
2021/06/05 07:34:34;;;;;;;121.85;65.03;;;16.90;99.90;;;;;;5033875;28;20172;-80
2021/06/05 07:37:09;;;;;;;138.90;67.97;;;16.90;99.90;;;;;;5032711;28;20551;-80
2021/06/05 07:39:36;;;;;;;125.82;63.97;;;17.10;99.90;;;;;;5034155;28;20187;-80
2021/06/05 07:42:03;;;;;;;108.68;61.97;;;17.00;99.90;;;;;;5033827;28;20200;-79
2021/06/05 07:44:30;;;;;;;102.82;60.47;;;17.10;99.90;;;;;;5034170;28;20235;-80
2021/06/05 07:46:58;;;;;;;102.60;60.80;;;17.00;99.90;;;;;;5032629;28;20168;-80
2021/06/05 07:49:29;;;;;;;115.15;64.82;;;17.00;99.90;;;;;;5033354;28;20199;-80
2021/06/05 07:51:56;;;;;;;116.55;63.53;;;16.90;99.90;;;;;;5033774;28;20218;-79
2021/06/05 07:54:22;;;;;;;100.50;60.50;;;17.00;99.90;;;;;;5032772;28;20175;-79
2021/06/05 07:56:49;;;;;;;102.57;61.92;;;17.10;99.90;;;;;;5033733;28;20160;-79
2021/06/05 07:59:21;;;;;;;113.28;61.60;;;17.00;99.90;;;;;;5065755;28;20230;-80
2021/06/05 08:01:48;;;;;;;97.47;60.40;;;17.10;99.90;;;;;;5065504;28;20180;-81
2021/06/05 08:04:14;;;;;;;95.03;58.97;;;17.20;99.90;;;;;;5039094;28;20177;-80
2021/06/05 08:06:40;;;;;;;100.20;59.55;;;17.20;99.90;;;;;;5043008;28;20263;-80
2021/06/05 08:09:06;;;;;;;115.05;62.42;;;17.30;99.90;;;;;;5031937;28;20295;-79
2021/06/05 08:11:33;;;;;;;108.85;63.20;;;17.40;99.90;;;;;;5033303;28;20167;-79
2021/06/05 08:13:59;;;;;;;104.63;58.70;;;17.40;99.90;;;;;;5033358;28;20259;-79
2021/06/05 08:16:25;;;;;;;102.78;58.90;;;17.50;99.90;;;;;;5032234;28;20250;-80
2021/06/05 08:18:51;;;;;;;98.07;58.17;;;17.60;99.90;;;;;;5033105;28;20174;-80
2021/06/05 08:21:18;;;;;;;95.28;56.42;;;17.70;99.90;;;;;;5033357;28;20176;-79
2021/06/05 08:23:44;;;;;;;97.18;55.30;;;17.80;99.90;;;;;;5033522;28;20172;-79
2021/06/05 08:26:12;;;;;;;101.32;57.25;;;17.80;99.90;;;;;;5034342;28;20160;-79
2021/06/05 08:28:39;;;;;;;85.20;54.50;;;17.90;99.90;;;;;;5037535;28;20201;-81
2021/06/05 08:31:08;;;;;;;91.45;54.13;;;18.00;99.90;;;;;;5036459;28;20179;-81
2021/06/05 08:33:34;;;;;;;89.68;53.28;;;18.20;99.90;;;;;;5035196;28;20179;-81
2021/06/05 08:36:00;;;;;;;87.22;53.30;;;18.40;99.90;;;;;;5041592;28;20624;-80
2021/06/05 08:38:28;;;;;;;81.20;49.00;;;18.60;99.90;;;;;;5082741;28;20179;-80
2021/06/05 08:41:17;;;;;;;73.85;47.42;;;18.70;99.90;;;;;;5039324;28;20711;-80
2021/06/05 08:43:59;;;;;;;67.70;46.53;;;18.80;99.90;;;;;;5047601;28;20167;-85
2021/06/05 08:46:30;;;;;;;67.97;45.80;;;19.10;99.90;;;;;;5049971;28;20160;-88
2021/06/05 08:49:01;;;;;;;68.97;46.38;;;19.40;99.90;;;;;;5049210;28;20203;-88
2021/06/05 08:51:58;;;;;;;75.65;51.65;;;19.50;99.90;;;;;;5038389;28;20167;-92
2021/06/05 08:54:38;;;;;;;73.03;49.13;;;19.50;99.90;;;;;;5037438;28;20160;-84
2021/06/05 08:57:14;;;;;;;73.90;51.47;;;19.60;99.90;;;;;;5029213;28;20186;-86
2021/06/05 08:59:45;;;;;;;72.43;50.00;;;19.40;99.90;;;;;;5052710;28;20612;-88
2021/06/05 09:02:13;;;;;;;66.97;46.92;;;19.10;99.90;;;;;;5048957;28;20171;-88
2021/06/05 09:04:40;;;;;;;66.28;48.92;;;19.00;99.90;;;;;;5055983;28;20175;-88
2021/06/05 09:07:13;;;;;;;73.03;49.33;;;19.10;99.90;;;;;;5045854;28;20225;-87
2021/06/05 09:09:47;;;;;;;82.85;52.83;;;19.00;99.90;;;;;;5043301;28;20187;-89
2021/06/05 09:12:14;;;;;;;77.88;51.22;;;18.80;99.90;;;;;;5036129;28;20597;-88
2021/06/05 09:14:41;;;;;;;78.97;53.38;;;18.70;99.90;;;;;;5035525;28;20176;-88
2021/06/05 09:17:21;;;;;;;79.65;54.05;;;18.50;99.90;;;;;;5035825;28;20225;-88
2021/06/05 09:20:05;;;;;;;75.00;53.55;;;18.60;99.90;;;;;;5036603;28;20171;-88
2021/06/05 09:22:38;;;;;;;79.57;52.50;;;18.50;99.90;;;;;;5050146;28;20175;-88
2021/06/05 09:25:18;;;;;;;82.32;53.55;;;18.30;99.90;;;;;;5052369;28;20209;-89
2021/06/05 09:27:43;;;;;;;94.47;58.67;;;18.40;99.90;;;;;;5051800;28;20714;-91
2021/06/05 09:30:35;;;;;;;83.40;56.92;;;18.40;99.90;;;;;;5024535;28;20175;-89
2021/06/05 09:33:06;;;;;;;78.15;53.28;;;18.60;99.90;;;;;;5038215;28;20614;-90
2021/06/05 09:35:43;;;;;;;65.78;48.92;;;18.80;99.90;;;;;;5041247;28;20612;-87
2021/06/05 09:38:25;;;;;;;59.53;44.78;;;18.70;99.90;;;;;;5057046;28;20178;-90
2021/06/05 09:41:07;;;;;;;60.15;42.85;;;18.70;99.90;;;;;;5037620;28;20512;-87
2021/06/05 09:43:34;;;;;;;62.22;42.40;;;18.60;99.90;;;;;;5035686;28;20160;-90
2021/06/05 09:46:28;;;;;;;61.70;44.13;;;18.40;99.90;;;;;;5051293;28;20184;-88
2021/06/05 09:49:30;;;;;;;62.53;42.70;;;18.60;99.90;;;;;;5072297;28;20200;-90
2021/06/05 09:52:15;;;;;;;62.08;42.58;;;18.60;99.90;;;;;;5056101;28;20600;-88
2021/06/05 09:54:43;;;;;;;58.42;43.28;;;18.40;99.90;;;;;;5055068;28;20186;-94
2021/06/05 09:57:38;;;;;;;59.30;42.95;;;18.50;99.90;;;;;;5056324;28;20171;-88
2021/06/05 10:00:37;;;;;;;64.88;46.33;;;18.80;99.90;;;;;;5044042;28;20168;-86
2021/06/05 10:03:33;;;;;;;60.75;45.20;;;18.90;99.90;;;;;;5036809;28;20243;-87
2021/06/05 10:06:14;;;;;;;64.40;45.63;;;18.90;99.90;;;;;;5050145;28;20156;-88
2021/06/05 10:08:41;;;;;;;48.88;38.97;;;19.00;99.90;;;;;;5055905;28;20278;-87
2021/06/05 10:11:19;;;;;;;47.08;36.42;;;19.00;99.90;;;;;;5035217;28;20164;-89
2021/06/05 10:13:55;;;;;;;50.92;40.38;;;18.90;99.90;;;;;;5052379;28;20261;-88
2021/06/05 10:16:22;;;;;;;52.88;40.03;;;19.00;99.90;;;;;;5052382;28;20159;-89
2021/06/05 10:18:57;;;;;;;37.15;30.08;;;19.00;99.90;;;;;;5054024;28;20619;-90
2021/06/05 10:21:27;;;;;;;40.40;28.88;;;18.70;99.90;;;;;;5036954;28;20243;-88
2021/06/05 10:23:59;;;;;;;39.55;29.55;;;18.30;99.90;;;;;;5037609;28;20175;-88
2021/06/05 10:26:28;;;;;;;36.60;28.35;;;18.10;99.90;;;;;;5043143;28;20163;-88
2021/06/05 10:29:01;;;;;;;31.83;25.80;;;18.00;99.90;;;;;;5073918;28;20297;-89
2021/06/05 10:31:27;;;;;;;30.75;25.15;;;17.90;99.90;;;;;;5052871;28;20160;-87
2021/06/05 10:34:02;;;;;;;31.08;24.63;;;17.90;99.90;;;;;;5040541;28;20175;-89
2021/06/05 10:36:31;;;;;;;28.98;22.95;;;18.10;99.90;;;;;;5040869;28;20164;-88
2021/06/05 10:39:20;;;;;;;26.23;23.02;;;18.10;99.90;;;;;;5042496;28;20206;-88
2021/06/05 10:42:11;;;;;;;24.17;20.42;;;18.20;99.90;;;;;;5058462;28;20179;-88
2021/06/05 10:44:36;;;;;;;23.27;18.95;;;18.10;99.90;;;;;;5053918;28;20222;-86
2021/06/05 10:47:09;;;;;;;25.42;19.23;;;17.90;99.90;;;;;;5078307;28;20163;-86
2021/06/05 10:49:56;;;;;;;21.77;19.30;;;17.90;99.90;;;;;;5072305;28;20214;-87
2021/06/05 10:52:44;;;;;;;20.85;18.75;;;17.70;99.90;;;;;;5057826;28;20194;-86
2021/06/05 10:55:44;;;;;;;22.98;19.92;;;17.70;99.90;;;;;;5049419;28;20160;-86
2021/06/05 10:58:13;;;;;;;24.20;17.85;;;17.60;99.90;;;;;;5053801;28;20187;-87
2021/06/05 11:00:41;;;;;;;25.92;20.08;;;17.70;99.90;;;;;;5071872;28;20187;-89
2021/06/05 11:03:27;;;;;;;22.33;18.23;;;17.70;99.90;;;;;;5066336;28;20176;-89
2021/06/05 11:06:07;;;;;;;22.15;19.00;;;17.70;99.90;;;;;;5047139;28;20183;-85
2021/06/05 11:08:39;;;;;;;27.70;17.83;;;17.80;99.90;;;;;;5042812;28;20223;-83
2021/06/05 11:11:07;;;;;;;26.13;19.60;;;17.70;99.90;;;;;;5070482;28;20175;-86
2021/06/05 11:13:36;;;;;;;22.45;18.02;;;18.00;99.90;;;;;;5041487;28;20172;-83
2021/06/05 11:16:06;;;;;;;26.25;17.92;;;18.10;99.90;;;;;;5054334;28;20174;-89
2021/06/05 11:18:55;;;;;;;26.13;18.85;;;18.10;99.90;;;;;;5034288;28;20200;-81
2021/06/05 11:21:23;;;;;;;25.80;19.15;;;18.20;99.90;;;;;;4984629;28;20231;-78
2021/06/05 11:24:17;;;;;;;21.33;19.10;;;18.30;99.90;;;;;;5030398;28;20172;-81
2021/06/05 11:26:56;;;;;;;23.60;17.13;;;18.20;99.90;;;;;;5011028;28;20637;-81
2021/06/05 11:29:21;;;;;;;20.65;15.65;;;18.10;99.90;;;;;;5039530;28;20551;-88
2021/06/05 11:32:08;;;;;;;25.65;16.73;;;18.10;99.90;;;;;;5072983;28;20167;-89
2021/06/05 11:34:33;;;;;;;18.85;14.60;;;18.00;99.90;;;;;;5073479;28;20159;-87
2021/06/05 11:37:24;;;;;;;18.02;15.18;;;18.10;99.90;;;;;;5071978;28;20183;-88
2021/06/05 11:39:57;;;;;;;25.25;18.45;;;18.10;99.90;;;;;;5036996;28;20194;-87
2021/06/05 11:42:23;;;;;;;26.13;18.70;;;17.90;99.90;;;;;;5036343;28;20148;-85
2021/06/05 11:44:58;;;;;;;31.98;20.35;;;18.10;99.90;;;;;;5067782;28;20178;-86
2021/06/05 11:47:23;;;;;;;25.90;19.70;;;18.30;99.90;;;;;;5055813;28;20159;-83
2021/06/05 11:50:07;;;;;;;26.73;18.40;;;18.50;99.90;;;;;;5063665;28;20175;-85
2021/06/05 11:52:42;;;;;;;27.25;19.23;;;18.60;99.90;;;;;;5050197;28;20172;-88
2021/06/05 11:55:38;;;;;;;23.83;16.52;;;18.70;99.90;;;;;;5037294;28;20162;-88
2021/06/05 11:58:19;;;;;;;29.77;16.63;;;18.50;99.90;;;;;;5033922;28;20172;-89
2021/06/05 12:00:59;;;;;;;23.35;15.63;;;18.50;99.90;;;;;;5076021;28;20181;-85
2021/06/05 12:03:48;;;;;;;26.55;16.52;;;18.60;99.90;;;;;;5056955;28;20152;-84
2021/06/05 12:06:26;;;;;;;18.60;14.90;;;18.60;99.90;;;;;;5052628;28;20191;-85
2021/06/05 12:09:17;;;;;;;27.45;15.32;;;18.80;99.90;;;;;;5066446;28;20226;-88
2021/06/05 12:11:50;;;;;;;22.02;13.93;;;18.60;99.90;;;;;;5054847;28;20164;-85
2021/06/05 12:14:47;;;;;;;26.50;15.40;;;18.40;99.90;;;;;;5052586;28;20604;-85
2021/06/05 12:17:19;;;;;;;23.33;15.43;;;18.50;99.90;;;;;;5055649;28;20164;-93
2021/06/05 12:19:45;;;;;;;22.02;15.30;;;18.50;99.90;;;;;;5044829;28;20167;-89
2021/06/05 12:22:12;;;;;;;27.00;15.75;;;18.60;99.90;;;;;;5053873;28;20202;-90
2021/06/05 12:24:40;;;;;;;19.00;15.10;;;18.80;99.90;;;;;;5052444;28;20167;-91
2021/06/05 12:27:07;;;;;;;22.50;15.57;;;18.90;99.90;;;;;;5053620;28;20551;-91
2021/06/05 12:29:36;;;;;;;27.90;17.00;;;18.70;99.90;;;;;;5052745;28;20674;-90
2021/06/05 12:32:19;;;;;;;23.63;18.48;;;18.70;99.90;;;;;;5044280;28;20172;-90
2021/06/05 12:34:45;;;;;;;26.60;17.48;;;18.60;99.90;;;;;;5052629;28;20163;-90
2021/06/05 12:37:21;;;;;;;26.58;20.73;;;18.40;99.90;;;;;;5034528;28;20258;-89
2021/06/05 12:39:47;;;;;;;36.75;26.50;;;18.40;99.90;;;;;;5050463;28;20180;-88